METAR AND TAF INFORMATION
METAR FOR PASH
ADDS - METARS form results

(0444 UTC 17 July 2019)
Data provider http://aviationweather.gov/metar/data/
 
METAR text: PASH 170356Z AUTO 28018KT 9SM CLR 14/11 A2965 RMK AO2 SLPNO T01390111
Conditions at: PASH (SHISHMAREF , AK, US) observed 0356 UTC 17 July 2019
Temperature: 13.9°C (57°F)
Dewpoint: 11.1°C (52°F) [RH = 83%]
Pressure (altimeter): 29.65 inches Hg (1004.1 mb)
Winds: from the W (280 degrees) at 21 MPH (18 knots; 9.3 m/s)
Visibility: 9 miles (14 km)
Ceiling: at least 12,000 feet AGL
Clouds: sky clear below 12,000 feet AGL
Weather: automated observation with no human augmentation;
there may or may not be significant weather present at this time

 AIRPORT MAP

 RUNWAY INFORMATION
Runway 05 Runway length 5000 ft Runway width 70 ft
Runway elevation 11 ft Runway displaced threshold 0 ft Runway heading 63
Runway 23 Runway length 5000 ft Runway width 70 ft
Runway elevation 12 ft Runway displaced threshold 0 ft Runway heading 243

 AIRPORT FREQUENCIES
Type AWOS Name AWOS 3 Frequency 121.1 MHZ
Type CNTR Name ANCHORAGE Frequency 119.2 MHZ
Type CTAF Name CTAF Frequency 123 MHZ
Type FSS Name NOME RDO Frequency 122.4 MHZ
Type MISC Name TWEB Frequency 36.5 MHZ

 AIRPORT NEAR NAVIGATION AIDS
Type NDB Name Shishmaref Frequency 365 KHZ



We are a FlightSim virtual group and are in no way affiliated with RavnAir Group.

Powered by Virtual Airlines Manager [v2.6.2]